Time;durP1;ratioP1;P1;durP2;ratioP2;P2;SDS_P1;SDS_P2;PMS_P1;PMS_P2;Temp;Humidity;BMP_temperature;BMP_pressure;BME280_temperature;BME280_humidity;BME280_pressure;Samples;Min_cycle;Max_cycle;Signal;HPM_P1;HPM_P2
2020/12/02 03:47:29;;;;;;;138.20;132.47;;;5.20;99.90;;;;;;3447815;41;20347;-81
2020/12/02 04:43:47;;;;;;;136.00;130.40;;;5.20;99.90;;;;;;3499041;33;20713;-85
2020/12/02 05:25:49;;;;;;;;;;;;;;;;;;;;;
2020/12/02 05:45:05;;;;;;;131.47;125.87;;;5.20;99.90;;;;;;3470834;34;20348;-82
2020/12/02 05:48:23;;;;;;;129.40;123.90;;;5.30;99.90;;;;;;3496774;40;20334;-82
2020/12/02 05:51:22;;;;;;;138.20;132.43;;;5.30;99.90;;;;;;3555563;33;20349;-81
2020/12/02 05:53:55;;;;;;;132.40;126.80;;;5.20;99.90;;;;;;3512100;40;20350;-84
2020/12/02 05:57:07;;;;;;;137.60;131.80;;;5.20;99.90;;;;;;3517558;40;20346;-81
2020/12/02 06:00:15;;;;;;;;;;;;;;;;;;;;;
2020/12/02 06:02:50;;;;;;;132.00;126.53;;;5.20;99.90;;;;;;3534594;33;20361;-82
2020/12/02 06:05:23;;;;;;;135.30;129.70;;;5.20;99.90;;;;;;3515670;40;20746;-82
2020/12/02 06:08:26;;;;;;;132.50;126.90;;;5.30;99.90;;;;;;3517650;33;20338;-82
2020/12/02 06:11:59;;;;;;;;;;;;;;;;;;;;;
2020/12/02 06:15:04;;;;;;;;;;;;;;;;;;;;;
2020/12/02 06:17:58;;;;;;;;;;;;;;;;;;;;;
2020/12/02 06:20:31;;;;;;;130.50;125.00;;;5.10;99.90;;;;;;3511677;40;20370;-82
2020/12/02 06:23:10;;;;;;;131.30;125.80;;;5.30;99.90;;;;;;3545228;33;20339;-83
2020/12/02 06:26:35;;;;;;;;;;;;;;;;;;;;;
2020/12/02 06:29:26;;;;;;;135.13;129.43;;;5.20;99.90;;;;;;3543475;33;20357;-82
2020/12/02 06:32:07;;;;;;;131.13;125.53;;;5.20;99.90;;;;;;3513286;40;20361;-83
2020/12/02 06:34:43;;;;;;;134.60;128.90;;;5.00;99.90;;;;;;3515367;40;20412;-83
2020/12/02 06:37:39;;;;;;;137.70;132.00;;;5.10;99.90;;;;;;3512948;40;20354;-83
2020/12/02 06:40:20;;;;;;;138.13;132.43;;;5.10;99.90;;;;;;3516281;40;20377;-83
2020/12/02 06:43:16;;;;;;;133.80;128.20;;;5.20;99.90;;;;;;3522975;40;20354;-82
2020/12/02 06:45:45;;;;;;;134.77;129.17;;;5.20;99.90;;;;;;3514591;40;20358;-83
2020/12/02 06:48:38;;;;;;;135.30;129.67;;;5.00;99.90;;;;;;3513266;40;20375;-85
2020/12/02 06:51:16;;;;;;;131.20;125.70;;;5.00;99.90;;;;;;3524064;33;20717;-81
2020/12/02 06:53:43;;;;;;;131.67;126.23;;;4.90;99.90;;;;;;3516725;40;20342;-81
2020/12/02 06:56:21;;;;;;;130.20;124.80;;;5.20;99.90;;;;;;3524855;40;20350;-82
2020/12/02 06:59:01;;;;;;;129.50;124.10;;;5.10;99.90;;;;;;3523499;40;20880;-81
2020/12/02 07:01:29;;;;;;;130.87;125.47;;;5.10;99.90;;;;;;3523724;40;20437;-81
2020/12/02 07:04:19;;;;;;;130.43;125.03;;;5.10;99.90;;;;;;3517403;40;20374;-81
2020/12/02 07:07:02;;;;;;;133.30;127.80;;;5.00;99.90;;;;;;3515146;40;20350;-80
2020/12/02 07:09:33;;;;;;;132.97;127.47;;;5.10;99.90;;;;;;3539353;33;20343;-82
2020/12/02 07:12:06;;;;;;;135.40;129.80;;;5.10;99.90;;;;;;3540641;33;20346;-81
2020/12/02 07:14:38;;;;;;;133.30;127.80;;;5.00;99.90;;;;;;3515046;40;20339;-82
2020/12/02 07:17:07;;;;;;;130.23;124.83;;;5.10;99.90;;;;;;3518639;40;20366;-82
2020/12/02 07:19:38;;;;;;;129.17;123.80;;;4.90;99.90;;;;;;3522556;40;20856;-82
2020/12/02 07:22:12;;;;;;;130.23;124.83;;;4.90;99.90;;;;;;3517827;40;20426;-82
2020/12/02 07:31:32;;;;;;;128.50;123.10;;;5.00;99.90;;;;;;3513660;40;20497;-81
2020/12/02 07:37:36;;;;;;;128.60;123.30;;;5.10;99.90;;;;;;3430094;34;20862;-82
2020/12/02 07:40:29;;;;;;;131.23;125.73;;;5.10;99.90;;;;;;3479279;41;20848;-80
2020/12/02 07:56:41;;;;;;;132.93;127.33;;;5.10;99.90;;;;;;3444218;41;20354;-81
2020/12/02 08:02:20;;;;;;;138.10;132.30;;;5.30;99.90;;;;;;3449634;41;20414;-81
2020/12/02 08:04:59;;;;;;;136.07;130.37;;;5.30;99.90;;;;;;3508130;40;20374;-82
2020/12/02 08:14:38;;;;;;;139.40;133.60;;;5.70;99.90;;;;;;3488255;33;20335;-82
2020/12/02 08:17:14;;;;;;;136.93;131.23;;;5.40;99.90;;;;;;3507974;40;20346;-85
2020/12/02 08:19:43;;;;;;;135.90;130.20;;;5.30;99.90;;;;;;3516527;40;20429;-85
2020/12/02 08:28:42;;;;;;;;;;;;;;;;;;;;;
2020/12/02 08:35:27;;;;;;;135.30;129.60;;;5.40;99.90;;;;;;3445141;41;20858;-84
2020/12/02 08:38:31;;;;;;;142.83;136.93;;;5.40;99.90;;;;;;3416498;41;20683;-84
2020/12/02 08:41:37;;;;;;;;;;;;;;;;;;;;;
2020/12/02 09:04:28;;;;;;;;;;;;;;;;;;;;;
2020/12/02 09:07:16;;;;;;;136.73;131.07;;;5.70;99.90;;;;;;3479555;41;20513;-84
2020/12/02 09:10:10;;;;;;;141.10;135.30;;;5.70;99.90;;;;;;3492106;41;20466;-84
2020/12/02 09:16:55;;;;;;;;;;;;;;;;;;;;;
2020/12/02 10:31:58;;;;;;;;;;;;;;;;;;;;;
2020/12/02 10:57:54;;;;;;;97.85;94.15;;;6.50;99.90;;;;;;4127082;27;20086;-81
2020/12/02 11:00:33;;;;;;;98.67;94.87;;;6.60;99.90;;;;;;4127533;34;20252;-88
2020/12/02 11:03:52;;;;;;;96.97;93.27;;;6.50;99.90;;;;;;4180712;26;20297;-86
2020/12/02 11:07:04;;;;;;;94.63;91.03;;;6.60;99.90;;;;;;4101418;35;20332;-84
2020/12/02 11:09:45;;;;;;;94.77;91.17;;;6.70;99.90;;;;;;4093143;34;20763;-85
2020/12/02 11:15:59;;;;;;;88.47;85.07;;;6.50;99.90;;;;;;4187918;27;20383;-81
2020/12/02 11:25:27;;;;;;;87.87;84.57;;;6.50;99.90;;;;;;4006549;28;20357;-82
2020/12/02 11:27:56;;;;;;;85.40;82.20;;;6.50;99.90;;;;;;4147809;34;20325;-82
2020/12/02 11:30:31;;;;;;;88.10;84.80;;;6.40;99.90;;;;;;4199134;26;20351;-82
2020/12/02 11:33:36;;;;;;;87.43;84.13;;;6.60;99.90;;;;;;4187252;34;20302;-82
2020/12/02 11:36:34;;;;;;;82.90;79.80;;;6.40;99.90;;;;;;4201270;27;20853;-81
2020/12/02 11:39:15;;;;;;;85.23;82.03;;;6.50;99.90;;;;;;4184280;34;20652;-82
2020/12/02 11:41:52;;;;;;;79.40;76.43;;;6.40;99.90;;;;;;4187240;34;20316;-81
2020/12/02 11:44:26;;;;;;;83.13;79.97;;;6.40;99.90;;;;;;4187354;34;20347;-82
2020/12/02 11:47:22;;;;;;;82.00;78.90;;;6.40;99.90;;;;;;4183807;34;20382;-82
2020/12/02 11:50:25;;;;;;;;;;;;;;;;;;;;;
2020/12/02 11:53:41;;;;;;;;;;;;;;;;;;;;;
2020/12/02 11:56:10;;;;;;;84.57;81.37;;;6.20;99.90;;;;;;4191804;34;20865;-79
2020/12/02 12:02:33;;;;;;;;;;;;;;;;;;;;;
2020/12/02 12:15:47;;;;;;;78.20;75.30;;;6.10;99.90;;;;;;4008358;35;20396;-85
2020/12/02 12:28:38;;;;;;;;;;;;;;;;;;;;;
2020/12/02 12:32:10;;;;;;;;;;;;;;;;;;;;;
2020/12/02 12:41:05;;;;;;;82.80;79.70;;;5.90;99.90;;;;;;4133102;27;20609;-84
2020/12/02 13:04:05;;;;;;;87.37;83.97;;;5.90;99.90;;;;;;4218867;26;20321;-83
2020/12/02 13:06:51;;;;;;;88.23;84.83;;;5.80;99.90;;;;;;4207844;26;20314;-82
2020/12/02 13:10:12;;;;;;;88.20;84.80;;;5.90;99.90;;;;;;4181289;34;20329;-83
2020/12/02 13:16:59;;;;;;;87.33;84.03;;;6.00;99.90;;;;;;4163001;26;20254;-86
2020/12/02 13:19:47;;;;;;;76.70;73.70;;;6.00;99.90;;;;;;4124943;27;20144;-84
2020/12/02 13:22:53;;;;;;;;;;;;;;;;;;;;;
2020/12/02 13:26:12;;;;;;;88.90;85.47;;;6.20;99.90;;;;;;4174852;34;20318;-83
2020/12/02 13:48:29;;;;;;;84.90;81.70;;;5.90;99.90;;;;;;4119590;27;20343;-85
2020/12/02 13:51:18;;;;;;;85.80;82.57;;;6.20;99.90;;;;;;4170615;34;20328;-86
2020/12/02 13:53:48;;;;;;;85.03;81.80;;;6.00;99.90;;;;;;4170650;34;20322;-84
2020/12/02 13:56:22;;;;;;;85.00;81.80;;;5.90;99.90;;;;;;4177232;26;20274;-85
2020/12/02 14:30:04;;;;;;;78.60;75.50;;;5.80;99.90;;;;;;4019678;28;21677;-84
2020/12/02 14:59:53;;;;;;;84.17;80.77;;;5.60;99.90;;;;;;3985642;28;20410;-82
2020/12/02 15:02:53;;;;;;;84.40;81.20;;;5.30;99.90;;;;;;4072433;27;20332;-83
2020/12/02 15:05:48;;;;;;;82.80;79.60;;;5.30;99.90;;;;;;4048935;27;20307;-82
2020/12/02 15:18:17;;;;;;;87.60;84.30;;;5.20;99.90;;;;;;3995390;28;20863;-84
2020/12/02 15:36:55;;;;;;;85.50;82.20;;;5.00;99.90;;;;;;4110301;27;20906;-84
2020/12/02 15:59:26;;;;;;;88.20;84.80;;;5.10;99.90;;;;;;4068372;34;20391;-80
2020/12/02 16:05:28;;;;;;;;;;;;;;;;;;;;;
2020/12/02 16:08:23;;;;;;;90.03;86.53;;;5.20;99.90;;;;;;4205398;26;20312;-85
2020/12/02 16:11:07;;;;;;;88.63;85.13;;;5.10;99.90;;;;;;4171093;34;20298;-85
2020/12/02 16:17:11;;;;;;;91.20;87.70;;;5.00;99.90;;;;;;4093337;35;20353;-85
2020/12/02 16:23:17;;;;;;;;;;;;;;;;;;;;;
2020/12/02 16:32:57;;;;;;;87.00;83.60;;;4.90;99.90;;;;;;4129710;27;20326;-86
2020/12/02 16:41:46;;;;;;;89.40;85.90;;;4.80;99.90;;;;;;4176079;27;20354;-85
2020/12/02 16:44:19;;;;;;;87.50;84.10;;;4.90;99.90;;;;;;4177057;26;20430;-85
2020/12/02 16:46:58;;;;;;;90.00;86.50;;;4.90;99.90;;;;;;4167484;34;20410;-79
2020/12/02 16:49:58;;;;;;;90.80;87.20;;;4.90;99.90;;;;;;4171079;34;20655;-84
2020/12/02 16:53:19;;;;;;;87.03;83.63;;;4.80;99.90;;;;;;4170798;34;20569;-84
2020/12/02 16:59:03;;;;;;;88.03;84.63;;;4.80;99.90;;;;;;4139960;27;20303;-84
2020/12/02 17:01:47;;;;;;;86.60;83.30;;;4.80;99.90;;;;;;4148610;34;20344;-84
2020/12/02 17:04:15;;;;;;;84.90;81.60;;;4.70;99.90;;;;;;4171089;34;20290;-84
2020/12/02 17:06:41;;;;;;;90.70;87.20;;;4.70;99.90;;;;;;4170973;34;20623;-86
2020/12/02 17:09:10;;;;;;;86.90;83.50;;;4.60;99.90;;;;;;4167892;34;20313;-86
2020/12/02 17:12:04;;;;;;;88.77;85.37;;;4.80;99.90;;;;;;4171084;34;20341;-85
2020/12/02 17:15:23;;;;;;;;;;;;;;;;;;;;;
2020/12/02 17:18:09;;;;;;;88.47;85.07;;;4.50;99.90;;;;;;4167917;34;20627;-86
2020/12/02 17:24:28;;;;;;;88.97;85.40;;;4.60;99.90;;;;;;4164977;34;20321;-85
2020/12/02 17:30:33;;;;;;;85.83;82.43;;;4.90;99.90;;;;;;4170405;27;20984;-85
2020/12/02 17:33:08;;;;;;;87.47;84.07;;;4.60;99.90;;;;;;4170951;34;20294;-85
2020/12/02 17:36:18;;;;;;;86.50;83.10;;;4.60;99.90;;;;;;4167836;34;20348;-86
2020/12/02 17:39:01;;;;;;;85.17;81.83;;;4.40;99.90;;;;;;4170332;26;20289;-88
2020/12/02 17:48:49;;;;;;;87.13;83.73;;;4.60;99.90;;;;;;4126912;27;20322;-87
2020/12/02 17:52:05;;;;;;;85.10;81.80;;;4.70;99.90;;;;;;4129550;27;20377;-86
2020/12/02 17:55:00;;;;;;;82.83;79.67;;;4.70;99.90;;;;;;4124767;34;20314;-86
2020/12/02 17:58:18;;;;;;;;;;;;;;;;;;;;;
2020/12/02 18:08:35;;;;;;;82.17;79.07;;;4.40;99.90;;;;;;4109866;28;20350;-86
2020/12/02 18:19:09;;;;;;;;;;;;;;;;;;;;;
2020/12/02 19:00:04;;;;;;;82.00;78.90;;;4.50;99.90;;;;;;4026480;28;20315;-83
2020/12/02 20:35:13;;;;;;;80.17;77.00;;;4.50;99.90;;;;;;4192984;34;21461;-83
2020/12/02 20:47:22;;;;;;;75.60;72.80;;;4.40;99.90;;;;;;4029912;28;21008;-83
2020/12/02 20:50:20;;;;;;;74.40;71.60;;;4.50;99.90;;;;;;4010516;28;20387;-82
2020/12/02 20:53:07;;;;;;;75.73;72.93;;;4.30;99.90;;;;;;3997643;35;20315;-83
2020/12/02 20:55:55;;;;;;;78.00;75.10;;;4.40;99.90;;;;;;3987980;35;20676;-83
2020/12/02 20:58:49;;;;;;;72.20;69.50;;;4.30;99.90;;;;;;4008507;35;21149;-84
2020/12/02 21:01:18;;;;;;;72.33;69.57;;;4.50;99.90;;;;;;4008285;35;20325;-82
2020/12/02 21:03:50;;;;;;;71.90;69.20;;;4.40;99.90;;;;;;4038273;35;20346;-82
2020/12/02 21:06:17;;;;;;;71.40;68.70;;;4.40;99.90;;;;;;4076983;35;20319;-85
2020/12/02 21:08:58;;;;;;;;;;;;;;;;;;;;;
2020/12/02 21:14:25;;;;;;;71.73;68.97;;;4.40;99.90;;;;;;4112648;27;20303;-86
2020/12/02 21:17:19;;;;;;;73.30;70.50;;;4.40;99.90;;;;;;4101291;34;20315;-85
2020/12/02 21:20:24;;;;;;;;;;;;;;;;;;;;;
2020/12/02 21:23:44;;;;;;;80.23;77.23;;;4.20;99.90;;;;;;4050712;28;20912;-86
2020/12/02 21:26:21;;;;;;;86.97;83.70;;;4.30;99.90;;;;;;4010802;35;20315;-85
2020/12/02 21:32:01;;;;;;;84.10;80.90;;;4.30;99.90;;;;;;4052975;28;20297;-84
2020/12/02 21:35:24;;;;;;;81.67;78.57;;;4.30;99.90;;;;;;4077053;35;20316;-85
